Emery, South Dakota
Current Conditions -  °F | °C
As of 8:53 PM on Thursday 27 Nov 2014 (Local Time) from KMHE Reporting Station
Overcast Overcast  
Wind Chill:   Ceiling: 10000
Heat Index: 19°   Visibility: 10mi
Dew Point: 11°   Wind: 21mph
Humidity: 71%   Direction: 150°SSE
Pressure: 30.04"   Gusts: 29mph
Location:  43.6°N, 97.62°W
Report Text: KMHE 280253Z AUTO 15018G25KT 10SM OVC100 M07/M12 A3004 RMK AO2 PK WND 16027/0239 SLP200 T10721117 56039
Loading
Personal Weather Stations






























Interactive Weather Map New forecast layout! Learn more

10-Day Weather Forecast

Advertisements
Track Severe Weather on mobile